Terminal Aerodrome Forecast
Issued by NWS

Current Version | Previous Version | Text Only | Print | Product List | Glossary On
Versions: 1 2 3 4 5 6 7 8 9 10 11 12 13 14 15 16 17 18 19 20 21 22 23 24 25 26 27 28 29 30 31 32 33 34 35 36 37 38 39 40 41 42 43
000
FTUS46 KOTX 302321
TAFPUW
TAF
KPUW 302321Z 3100/3124 25016G24KT P6SM VCSH SCT070 BKN090
     FM310300 23008KT P6SM FEW070 SCT180
     FM311200 20006KT P6SM SCT030 BKN150
     FM311600 23012KT P6SM FEW050 SCT080 BKN150=

USA.gov is the U.S. government's official web portal to all federal, state and local government web resources and services.